sensor_id;sensor_type;location;lat;lon;timestamp;P1;durP1;ratioP1;P2;durP2;ratioP2
6785;SDS011;3430;51.192;6.048;2024-03-08T00:01:52;14.60;;;10.50;;
6785;SDS011;3430;51.192;6.048;2024-03-08T00:04:17;13.43;;;10.43;;
6785;SDS011;3430;51.192;6.048;2024-03-08T00:06:43;15.53;;;10.57;;
6785;SDS011;3430;51.192;6.048;2024-03-08T00:09:11;14.07;;;10.40;;
6785;SDS011;3430;51.192;6.048;2024-03-08T00:11:36;14.10;;;10.90;;
6785;SDS011;3430;51.192;6.048;2024-03-08T00:14:01;13.80;;;10.30;;
6785;SDS011;3430;51.192;6.048;2024-03-08T00:16:27;12.87;;;9.83;;
6785;SDS011;3430;51.192;6.048;2024-03-08T00:18:52;15.07;;;11.43;;
6785;SDS011;3430;51.192;6.048;2024-03-08T00:21:18;14.13;;;10.27;;
6785;SDS011;3430;51.192;6.048;2024-03-08T00:23:43;13.97;;;10.43;;
6785;SDS011;3430;51.192;6.048;2024-03-08T00:26:08;13.73;;;10.27;;
6785;SDS011;3430;51.192;6.048;2024-03-08T00:28:34;12.60;;;9.93;;
6785;SDS011;3430;51.192;6.048;2024-03-08T00:31:03;12.40;;;9.80;;
6785;SDS011;3430;51.192;6.048;2024-03-08T00:33:28;14.93;;;10.10;;
6785;SDS011;3430;51.192;6.048;2024-03-08T00:35:54;15.33;;;10.57;;
6785;SDS011;3430;51.192;6.048;2024-03-08T00:38:25;11.60;;;9.37;;
6785;SDS011;3430;51.192;6.048;2024-03-08T00:40:50;12.60;;;10.33;;
6785;SDS011;3430;51.192;6.048;2024-03-08T00:43:16;13.80;;;10.37;;
6785;SDS011;3430;51.192;6.048;2024-03-08T00:45:41;12.87;;;10.20;;
6785;SDS011;3430;51.192;6.048;2024-03-08T00:48:08;13.73;;;10.10;;
6785;SDS011;3430;51.192;6.048;2024-03-08T00:50:33;15.77;;;10.90;;
6785;SDS011;3430;51.192;6.048;2024-03-08T00:52:59;12.97;;;10.50;;
6785;SDS011;3430;51.192;6.048;2024-03-08T00:55:25;16.93;;;10.50;;
6785;SDS011;3430;51.192;6.048;2024-03-08T00:57:50;13.83;;;10.37;;
6785;SDS011;3430;51.192;6.048;2024-03-08T01:00:15;11.67;;;9.60;;
6785;SDS011;3430;51.192;6.048;2024-03-08T01:02:42;12.97;;;10.30;;
6785;SDS011;3430;51.192;6.048;2024-03-08T01:05:07;15.67;;;10.73;;
6785;SDS011;3430;51.192;6.048;2024-03-08T01:07:33;14.30;;;10.57;;
6785;SDS011;3430;51.192;6.048;2024-03-08T01:09:59;16.20;;;10.93;;
6785;SDS011;3430;51.192;6.048;2024-03-08T01:12:26;16.67;;;10.67;;
6785;SDS011;3430;51.192;6.048;2024-03-08T01:14:51;13.70;;;9.67;;
6785;SDS011;3430;51.192;6.048;2024-03-08T01:17:16;11.97;;;9.90;;
6785;SDS011;3430;51.192;6.048;2024-03-08T01:19:42;13.43;;;9.90;;
6785;SDS011;3430;51.192;6.048;2024-03-08T01:22:10;15.40;;;11.23;;
6785;SDS011;3430;51.192;6.048;2024-03-08T01:24:35;13.47;;;9.97;;
6785;SDS011;3430;51.192;6.048;2024-03-08T01:27:00;12.17;;;10.33;;
6785;SDS011;3430;51.192;6.048;2024-03-08T01:29:27;14.07;;;10.37;;
6785;SDS011;3430;51.192;6.048;2024-03-08T01:31:54;12.03;;;9.97;;
6785;SDS011;3430;51.192;6.048;2024-03-08T01:34:20;14.13;;;11.07;;
6785;SDS011;3430;51.192;6.048;2024-03-08T01:36:46;14.67;;;11.17;;
6785;SDS011;3430;51.192;6.048;2024-03-08T01:39:11;13.27;;;10.73;;
6785;SDS011;3430;51.192;6.048;2024-03-08T01:41:36;14.10;;;10.67;;
6785;SDS011;3430;51.192;6.048;2024-03-08T01:44:02;14.37;;;10.80;;
6785;SDS011;3430;51.192;6.048;2024-03-08T01:46:30;15.87;;;10.73;;
6785;SDS011;3430;51.192;6.048;2024-03-08T01:48:56;14.43;;;11.20;;
6785;SDS011;3430;51.192;6.048;2024-03-08T01:51:22;12.70;;;9.73;;
6785;SDS011;3430;51.192;6.048;2024-03-08T01:53:47;13.70;;;9.87;;
6785;SDS011;3430;51.192;6.048;2024-03-08T01:56:13;14.60;;;10.07;;
6785;SDS011;3430;51.192;6.048;2024-03-08T01:58:39;13.83;;;10.13;;
6785;SDS011;3430;51.192;6.048;2024-03-08T02:01:07;14.23;;;10.00;;
6785;SDS011;3430;51.192;6.048;2024-03-08T02:03:32;15.47;;;10.43;;
6785;SDS011;3430;51.192;6.048;2024-03-08T02:05:58;13.77;;;10.40;;
6785;SDS011;3430;51.192;6.048;2024-03-08T02:08:26;14.70;;;10.57;;
6785;SDS011;3430;51.192;6.048;2024-03-08T02:10:51;13.53;;;10.03;;
6785;SDS011;3430;51.192;6.048;2024-03-08T02:13:16;14.60;;;10.80;;
6785;SDS011;3430;51.192;6.048;2024-03-08T02:18:16;12.90;;;10.37;;
6785;SDS011;3430;51.192;6.048;2024-03-08T02:20:48;13.10;;;10.87;;
6785;SDS011;3430;51.192;6.048;2024-03-08T02:23:14;14.63;;;11.10;;
6785;SDS011;3430;51.192;6.048;2024-03-08T02:25:39;12.97;;;10.50;;
6785;SDS011;3430;51.192;6.048;2024-03-08T02:28:05;13.57;;;10.27;;
6785;SDS011;3430;51.192;6.048;2024-03-08T02:30:30;12.23;;;10.27;;
6785;SDS011;3430;51.192;6.048;2024-03-08T02:32:56;12.83;;;10.43;;
6785;SDS011;3430;51.192;6.048;2024-03-08T02:35:21;14.40;;;11.10;;
6785;SDS011;3430;51.192;6.048;2024-03-08T02:37:46;14.67;;;11.13;;
6785;SDS011;3430;51.192;6.048;2024-03-08T02:40:13;14.83;;;10.80;;
6785;SDS011;3430;51.192;6.048;2024-03-08T02:42:38;16.43;;;11.43;;
6785;SDS011;3430;51.192;6.048;2024-03-08T02:45:04;12.47;;;10.87;;
6785;SDS011;3430;51.192;6.048;2024-03-08T02:47:38;16.37;;;10.90;;
6785;SDS011;3430;51.192;6.048;2024-03-08T02:50:11;13.37;;;9.83;;
6785;SDS011;3430;51.192;6.048;2024-03-08T02:52:37;13.43;;;11.47;;
6785;SDS011;3430;51.192;6.048;2024-03-08T02:55:03;14.40;;;11.30;;
6785;SDS011;3430;51.192;6.048;2024-03-08T02:57:31;13.23;;;10.63;;
6785;SDS011;3430;51.192;6.048;2024-03-08T02:59:57;13.30;;;10.47;;
6785;SDS011;3430;51.192;6.048;2024-03-08T03:02:24;16.07;;;10.77;;
6785;SDS011;3430;51.192;6.048;2024-03-08T03:04:50;14.13;;;10.67;;
6785;SDS011;3430;51.192;6.048;2024-03-08T03:07:15;14.13;;;10.77;;
6785;SDS011;3430;51.192;6.048;2024-03-08T03:09:41;13.87;;;11.03;;
6785;SDS011;3430;51.192;6.048;2024-03-08T03:12:07;14.67;;;11.40;;
6785;SDS011;3430;51.192;6.048;2024-03-08T03:14:36;15.23;;;11.20;;
6785;SDS011;3430;51.192;6.048;2024-03-08T03:17:03;14.03;;;10.80;;
6785;SDS011;3430;51.192;6.048;2024-03-08T03:19:29;14.43;;;11.00;;
6785;SDS011;3430;51.192;6.048;2024-03-08T03:21:55;14.47;;;10.87;;
6785;SDS011;3430;51.192;6.048;2024-03-08T03:24:20;13.30;;;10.37;;
6785;SDS011;3430;51.192;6.048;2024-03-08T03:26:46;14.77;;;10.87;;
6785;SDS011;3430;51.192;6.048;2024-03-08T03:29:14;14.10;;;10.77;;
6785;SDS011;3430;51.192;6.048;2024-03-08T03:31:40;14.03;;;11.07;;
6785;SDS011;3430;51.192;6.048;2024-03-08T03:34:06;14.87;;;11.30;;
6785;SDS011;3430;51.192;6.048;2024-03-08T03:36:34;14.60;;;10.43;;
6785;SDS011;3430;51.192;6.048;2024-03-08T03:39:00;14.93;;;10.70;;
6785;SDS011;3430;51.192;6.048;2024-03-08T03:41:36;14.90;;;10.37;;
6785;SDS011;3430;51.192;6.048;2024-03-08T03:44:01;13.60;;;11.03;;
6785;SDS011;3430;51.192;6.048;2024-03-08T03:46:27;14.07;;;11.17;;
6785;SDS011;3430;51.192;6.048;2024-03-08T03:48:53;15.93;;;10.93;;
6785;SDS011;3430;51.192;6.048;2024-03-08T03:51:20;14.90;;;11.30;;
6785;SDS011;3430;51.192;6.048;2024-03-08T03:53:46;15.20;;;11.50;;
6785;SDS011;3430;51.192;6.048;2024-03-08T03:56:12;15.40;;;11.50;;
6785;SDS011;3430;51.192;6.048;2024-03-08T03:58:37;14.60;;;11.07;;
6785;SDS011;3430;51.192;6.048;2024-03-08T04:01:04;15.50;;;11.40;;
6785;SDS011;3430;51.192;6.048;2024-03-08T04:03:29;14.37;;;10.77;;
6785;SDS011;3430;51.192;6.048;2024-03-08T04:05:55;15.27;;;11.20;;
6785;SDS011;3430;51.192;6.048;2024-03-08T04:08:20;15.47;;;11.17;;
6785;SDS011;3430;51.192;6.048;2024-03-08T04:10:45;13.47;;;10.20;;
6785;SDS011;3430;51.192;6.048;2024-03-08T04:13:11;16.30;;;11.33;;
6785;SDS011;3430;51.192;6.048;2024-03-08T04:15:36;13.43;;;10.73;;
6785;SDS011;3430;51.192;6.048;2024-03-08T04:18:03;15.03;;;11.67;;
6785;SDS011;3430;51.192;6.048;2024-03-08T04:20:28;13.67;;;11.27;;
6785;SDS011;3430;51.192;6.048;2024-03-08T04:22:54;15.37;;;11.03;;
6785;SDS011;3430;51.192;6.048;2024-03-08T04:25:20;15.83;;;11.63;;
6785;SDS011;3430;51.192;6.048;2024-03-08T04:27:46;16.87;;;11.90;;
6785;SDS011;3430;51.192;6.048;2024-03-08T04:30:12;13.27;;;10.60;;
6785;SDS011;3430;51.192;6.048;2024-03-08T04:32:37;13.33;;;10.37;;
6785;SDS011;3430;51.192;6.048;2024-03-08T04:35:03;14.93;;;11.57;;
6785;SDS011;3430;51.192;6.048;2024-03-08T04:37:28;14.27;;;11.20;;
6785;SDS011;3430;51.192;6.048;2024-03-08T04:39:56;14.30;;;11.43;;
6785;SDS011;3430;51.192;6.048;2024-03-08T04:42:23;14.30;;;11.53;;
6785;SDS011;3430;51.192;6.048;2024-03-08T04:44:50;14.63;;;11.23;;
6785;SDS011;3430;51.192;6.048;2024-03-08T04:47:15;14.43;;;11.27;;
6785;SDS011;3430;51.192;6.048;2024-03-08T04:49:43;13.87;;;11.20;;
6785;SDS011;3430;51.192;6.048;2024-03-08T04:52:08;12.47;;;10.40;;
6785;SDS011;3430;51.192;6.048;2024-03-08T04:54:34;12.97;;;11.10;;
6785;SDS011;3430;51.192;6.048;2024-03-08T04:56:59;15.43;;;11.53;;
6785;SDS011;3430;51.192;6.048;2024-03-08T04:59:25;13.77;;;11.37;;
6785;SDS011;3430;51.192;6.048;2024-03-08T05:01:50;13.70;;;10.87;;
6785;SDS011;3430;51.192;6.048;2024-03-08T05:04:16;14.93;;;11.73;;
6785;SDS011;3430;51.192;6.048;2024-03-08T05:06:42;15.30;;;11.87;;
6785;SDS011;3430;51.192;6.048;2024-03-08T05:09:07;13.53;;;10.50;;
6785;SDS011;3430;51.192;6.048;2024-03-08T05:11:44;15.83;;;11.90;;
6785;SDS011;3430;51.192;6.048;2024-03-08T05:14:10;14.33;;;10.90;;
6785;SDS011;3430;51.192;6.048;2024-03-08T05:16:39;14.90;;;11.70;;
6785;SDS011;3430;51.192;6.048;2024-03-08T05:19:05;14.03;;;11.00;;
6785;SDS011;3430;51.192;6.048;2024-03-08T05:21:31;12.80;;;10.70;;
6785;SDS011;3430;51.192;6.048;2024-03-08T05:23:56;15.60;;;11.57;;
6785;SDS011;3430;51.192;6.048;2024-03-08T05:26:21;14.87;;;11.13;;
6785;SDS011;3430;51.192;6.048;2024-03-08T05:28:47;12.33;;;10.63;;
6785;SDS011;3430;51.192;6.048;2024-03-08T05:31:23;13.47;;;11.33;;
6785;SDS011;3430;51.192;6.048;2024-03-08T05:33:48;14.07;;;11.33;;
6785;SDS011;3430;51.192;6.048;2024-03-08T05:36:14;14.33;;;11.17;;
6785;SDS011;3430;51.192;6.048;2024-03-08T05:38:41;16.20;;;11.73;;
6785;SDS011;3430;51.192;6.048;2024-03-08T05:41:08;15.37;;;11.37;;
6785;SDS011;3430;51.192;6.048;2024-03-08T05:43:37;12.47;;;10.60;;
6785;SDS011;3430;51.192;6.048;2024-03-08T05:46:03;15.20;;;11.47;;
6785;SDS011;3430;51.192;6.048;2024-03-08T05:48:29;17.40;;;11.37;;
6785;SDS011;3430;51.192;6.048;2024-03-08T05:50:57;14.93;;;11.27;;
6785;SDS011;3430;51.192;6.048;2024-03-08T05:53:22;14.97;;;11.03;;
6785;SDS011;3430;51.192;6.048;2024-03-08T05:55:48;13.43;;;11.20;;
6785;SDS011;3430;51.192;6.048;2024-03-08T05:58:14;15.73;;;11.53;;
6785;SDS011;3430;51.192;6.048;2024-03-08T06:00:39;16.77;;;11.97;;
6785;SDS011;3430;51.192;6.048;2024-03-08T06:03:05;13.93;;;11.60;;
6785;SDS011;3430;51.192;6.048;2024-03-08T06:05:30;15.93;;;12.03;;
6785;SDS011;3430;51.192;6.048;2024-03-08T06:07:56;15.83;;;11.87;;
6785;SDS011;3430;51.192;6.048;2024-03-08T06:10:21;14.47;;;11.43;;
6785;SDS011;3430;51.192;6.048;2024-03-08T06:12:47;13.20;;;10.43;;
6785;SDS011;3430;51.192;6.048;2024-03-08T06:15:12;14.77;;;11.03;;
6785;SDS011;3430;51.192;6.048;2024-03-08T06:17:41;16.70;;;11.57;;
6785;SDS011;3430;51.192;6.048;2024-03-08T06:20:07;15.37;;;12.30;;
6785;SDS011;3430;51.192;6.048;2024-03-08T06:22:38;14.50;;;10.57;;
6785;SDS011;3430;51.192;6.048;2024-03-08T06:25:06;15.77;;;12.10;;
6785;SDS011;3430;51.192;6.048;2024-03-08T06:27:32;15.07;;;12.10;;
6785;SDS011;3430;51.192;6.048;2024-03-08T06:29:59;16.50;;;11.60;;
6785;SDS011;3430;51.192;6.048;2024-03-08T06:32:24;13.97;;;11.07;;
6785;SDS011;3430;51.192;6.048;2024-03-08T06:34:49;14.40;;;11.57;;
6785;SDS011;3430;51.192;6.048;2024-03-08T06:37:15;14.63;;;10.90;;
6785;SDS011;3430;51.192;6.048;2024-03-08T06:39:40;16.40;;;12.10;;
6785;SDS011;3430;51.192;6.048;2024-03-08T06:42:06;16.77;;;12.00;;
6785;SDS011;3430;51.192;6.048;2024-03-08T06:44:32;17.43;;;12.97;;
6785;SDS011;3430;51.192;6.048;2024-03-08T06:46:57;14.37;;;11.43;;
6785;SDS011;3430;51.192;6.048;2024-03-08T06:49:23;16.70;;;12.33;;
6785;SDS011;3430;51.192;6.048;2024-03-08T06:51:48;12.80;;;10.77;;
6785;SDS011;3430;51.192;6.048;2024-03-08T06:54:14;16.17;;;12.67;;
6785;SDS011;3430;51.192;6.048;2024-03-08T06:56:39;17.33;;;11.67;;
6785;SDS011;3430;51.192;6.048;2024-03-08T06:59:05;16.67;;;11.87;;
6785;SDS011;3430;51.192;6.048;2024-03-08T07:01:31;16.07;;;11.43;;
6785;SDS011;3430;51.192;6.048;2024-03-08T07:03:57;15.87;;;11.33;;
6785;SDS011;3430;51.192;6.048;2024-03-08T07:06:22;15.40;;;11.20;;
6785;SDS011;3430;51.192;6.048;2024-03-08T07:08:48;15.47;;;11.77;;
6785;SDS011;3430;51.192;6.048;2024-03-08T07:11:14;16.13;;;11.70;;
6785;SDS011;3430;51.192;6.048;2024-03-08T07:13:41;13.93;;;10.93;;
6785;SDS011;3430;51.192;6.048;2024-03-08T07:16:06;16.53;;;11.57;;
6785;SDS011;3430;51.192;6.048;2024-03-08T07:18:33;15.10;;;11.90;;
6785;SDS011;3430;51.192;6.048;2024-03-08T07:20:59;17.33;;;12.17;;
6785;SDS011;3430;51.192;6.048;2024-03-08T07:23:27;14.63;;;12.00;;
6785;SDS011;3430;51.192;6.048;2024-03-08T07:26:10;16.47;;;12.00;;
6785;SDS011;3430;51.192;6.048;2024-03-08T07:28:36;15.20;;;11.40;;
6785;SDS011;3430;51.192;6.048;2024-03-08T07:31:02;15.13;;;12.10;;
6785;SDS011;3430;51.192;6.048;2024-03-08T07:33:42;15.20;;;11.57;;
6785;SDS011;3430;51.192;6.048;2024-03-08T07:36:07;18.37;;;10.77;;
6785;SDS011;3430;51.192;6.048;2024-03-08T07:38:33;15.77;;;11.87;;
6785;SDS011;3430;51.192;6.048;2024-03-08T07:40:59;16.53;;;11.83;;
6785;SDS011;3430;51.192;6.048;2024-03-08T07:43:24;16.17;;;12.40;;
6785;SDS011;3430;51.192;6.048;2024-03-08T07:45:50;22.17;;;11.77;;
6785;SDS011;3430;51.192;6.048;2024-03-08T07:48:17;14.93;;;12.07;;
6785;SDS011;3430;51.192;6.048;2024-03-08T07:50:43;16.77;;;13.80;;
6785;SDS011;3430;51.192;6.048;2024-03-08T07:53:08;15.33;;;11.57;;
6785;SDS011;3430;51.192;6.048;2024-03-08T07:55:36;16.50;;;11.87;;
6785;SDS011;3430;51.192;6.048;2024-03-08T07:58:02;14.30;;;10.90;;
6785;SDS011;3430;51.192;6.048;2024-03-08T08:00:28;15.03;;;11.07;;
6785;SDS011;3430;51.192;6.048;2024-03-08T08:02:58;14.37;;;11.17;;
6785;SDS011;3430;51.192;6.048;2024-03-08T08:05:26;18.33;;;11.90;;
6785;SDS011;3430;51.192;6.048;2024-03-08T08:07:52;16.90;;;11.80;;
6785;SDS011;3430;51.192;6.048;2024-03-08T08:10:18;15.83;;;11.60;;
6785;SDS011;3430;51.192;6.048;2024-03-08T08:12:49;15.67;;;11.90;;
6785;SDS011;3430;51.192;6.048;2024-03-08T08:15:15;15.90;;;11.90;;
6785;SDS011;3430;51.192;6.048;2024-03-08T08:17:44;16.53;;;11.87;;
6785;SDS011;3430;51.192;6.048;2024-03-08T08:20:10;16.27;;;11.60;;
6785;SDS011;3430;51.192;6.048;2024-03-08T08:22:37;15.60;;;11.97;;
6785;SDS011;3430;51.192;6.048;2024-03-08T08:25:03;17.03;;;11.77;;
6785;SDS011;3430;51.192;6.048;2024-03-08T08:27:29;15.10;;;11.90;;
6785;SDS011;3430;51.192;6.048;2024-03-08T08:29:54;18.27;;;12.20;;
6785;SDS011;3430;51.192;6.048;2024-03-08T08:32:21;14.40;;;11.20;;
6785;SDS011;3430;51.192;6.048;2024-03-08T08:34:46;15.80;;;11.87;;
6785;SDS011;3430;51.192;6.048;2024-03-08T08:37:12;15.80;;;11.80;;
6785;SDS011;3430;51.192;6.048;2024-03-08T08:39:37;16.90;;;12.67;;
6785;SDS011;3430;51.192;6.048;2024-03-08T08:42:06;16.17;;;12.30;;
6785;SDS011;3430;51.192;6.048;2024-03-08T08:44:36;14.53;;;11.67;;
6785;SDS011;3430;51.192;6.048;2024-03-08T08:47:02;13.93;;;11.53;;
6785;SDS011;3430;51.192;6.048;2024-03-08T08:49:28;17.57;;;11.77;;
6785;SDS011;3430;51.192;6.048;2024-03-08T08:51:55;15.17;;;11.67;;
6785;SDS011;3430;51.192;6.048;2024-03-08T08:54:23;17.00;;;11.77;;
6785;SDS011;3430;51.192;6.048;2024-03-08T08:56:50;16.67;;;12.50;;
6785;SDS011;3430;51.192;6.048;2024-03-08T08:59:15;16.33;;;12.60;;
6785;SDS011;3430;51.192;6.048;2024-03-08T09:01:44;14.00;;;11.03;;
6785;SDS011;3430;51.192;6.048;2024-03-08T09:04:12;15.00;;;11.83;;
6785;SDS011;3430;51.192;6.048;2024-03-08T09:06:40;16.13;;;11.47;;
6785;SDS011;3430;51.192;6.048;2024-03-08T09:09:06;16.97;;;12.03;;
6785;SDS011;3430;51.192;6.048;2024-03-08T09:11:34;17.60;;;11.60;;
6785;SDS011;3430;51.192;6.048;2024-03-08T09:13:59;15.87;;;11.90;;
6785;SDS011;3430;51.192;6.048;2024-03-08T09:16:25;14.90;;;11.90;;
6785;SDS011;3430;51.192;6.048;2024-03-08T09:18:51;15.93;;;11.87;;
6785;SDS011;3430;51.192;6.048;2024-03-08T09:21:16;16.80;;;11.97;;
6785;SDS011;3430;51.192;6.048;2024-03-08T09:23:42;15.63;;;11.50;;
6785;SDS011;3430;51.192;6.048;2024-03-08T09:26:10;17.00;;;12.00;;
6785;SDS011;3430;51.192;6.048;2024-03-08T09:28:37;14.50;;;10.90;;
6785;SDS011;3430;51.192;6.048;2024-03-08T09:31:03;18.37;;;12.27;;
6785;SDS011;3430;51.192;6.048;2024-03-08T09:33:30;15.60;;;11.90;;
6785;SDS011;3430;51.192;6.048;2024-03-08T09:35:56;15.67;;;11.33;;
6785;SDS011;3430;51.192;6.048;2024-03-08T09:38:22;17.07;;;11.10;;
6785;SDS011;3430;51.192;6.048;2024-03-08T09:40:49;15.67;;;11.03;;
6785;SDS011;3430;51.192;6.048;2024-03-08T09:43:15;16.10;;;11.30;;
6785;SDS011;3430;51.192;6.048;2024-03-08T09:45:40;17.43;;;11.87;;
6785;SDS011;3430;51.192;6.048;2024-03-08T09:48:10;16.63;;;12.20;;
6785;SDS011;3430;51.192;6.048;2024-03-08T09:50:37;18.73;;;12.07;;
6785;SDS011;3430;51.192;6.048;2024-03-08T09:53:03;14.80;;;11.17;;
6785;SDS011;3430;51.192;6.048;2024-03-08T09:55:28;14.20;;;11.33;;
6785;SDS011;3430;51.192;6.048;2024-03-08T09:57:59;13.40;;;10.63;;
6785;SDS011;3430;51.192;6.048;2024-03-08T10:00:43;15.20;;;11.60;;
6785;SDS011;3430;51.192;6.048;2024-03-08T10:03:09;16.60;;;11.53;;
6785;SDS011;3430;51.192;6.048;2024-03-08T10:05:35;14.87;;;11.70;;
6785;SDS011;3430;51.192;6.048;2024-03-08T10:08:04;16.40;;;11.43;;
6785;SDS011;3430;51.192;6.048;2024-03-08T10:10:33;17.37;;;11.97;;
6785;SDS011;3430;51.192;6.048;2024-03-08T10:12:58;15.90;;;12.03;;
6785;SDS011;3430;51.192;6.048;2024-03-08T10:15:26;14.70;;;11.67;;
6785;SDS011;3430;51.192;6.048;2024-03-08T10:17:56;15.87;;;12.30;;
6785;SDS011;3430;51.192;6.048;2024-03-08T10:20:22;16.43;;;11.57;;
6785;SDS011;3430;51.192;6.048;2024-03-08T10:22:49;15.93;;;11.00;;
6785;SDS011;3430;51.192;6.048;2024-03-08T10:25:15;15.83;;;11.07;;
6785;SDS011;3430;51.192;6.048;2024-03-08T10:27:46;16.93;;;10.57;;
6785;SDS011;3430;51.192;6.048;2024-03-08T10:30:15;16.97;;;11.80;;
6785;SDS011;3430;51.192;6.048;2024-03-08T10:32:41;15.83;;;10.90;;
6785;SDS011;3430;51.192;6.048;2024-03-08T10:35:07;14.83;;;11.37;;
6785;SDS011;3430;51.192;6.048;2024-03-08T10:37:33;15.30;;;11.87;;
6785;SDS011;3430;51.192;6.048;2024-03-08T10:40:03;16.00;;;11.83;;
6785;SDS011;3430;51.192;6.048;2024-03-08T10:42:35;17.53;;;11.00;;
6785;SDS011;3430;51.192;6.048;2024-03-08T10:45:10;15.33;;;10.00;;
6785;SDS011;3430;51.192;6.048;2024-03-08T10:47:40;16.07;;;11.87;;
6785;SDS011;3430;51.192;6.048;2024-03-08T10:50:18;15.23;;;11.10;;
6785;SDS011;3430;51.192;6.048;2024-03-08T10:52:50;15.23;;;10.93;;
6785;SDS011;3430;51.192;6.048;2024-03-08T10:55:17;16.63;;;10.80;;
6785;SDS011;3430;51.192;6.048;2024-03-08T10:57:42;17.20;;;11.00;;
6785;SDS011;3430;51.192;6.048;2024-03-08T11:00:11;14.53;;;11.17;;
6785;SDS011;3430;51.192;6.048;2024-03-08T11:02:37;15.93;;;11.23;;
6785;SDS011;3430;51.192;6.048;2024-03-08T11:05:03;15.17;;;10.70;;
6785;SDS011;3430;51.192;6.048;2024-03-08T11:07:33;13.50;;;10.77;;
6785;SDS011;3430;51.192;6.048;2024-03-08T11:09:59;15.03;;;10.47;;
6785;SDS011;3430;51.192;6.048;2024-03-08T11:12:29;13.87;;;11.17;;
6785;SDS011;3430;51.192;6.048;2024-03-08T11:15:10;14.30;;;10.67;;
6785;SDS011;3430;51.192;6.048;2024-03-08T11:17:45;13.47;;;10.43;;
6785;SDS011;3430;51.192;6.048;2024-03-08T11:20:11;16.40;;;10.60;;
6785;SDS011;3430;51.192;6.048;2024-03-08T11:22:55;15.87;;;10.40;;
6785;SDS011;3430;51.192;6.048;2024-03-08T11:25:36;13.83;;;10.57;;
6785;SDS011;3430;51.192;6.048;2024-03-08T11:28:17;16.03;;;11.13;;
6785;SDS011;3430;51.192;6.048;2024-03-08T11:30:44;15.60;;;10.93;;
6785;SDS011;3430;51.192;6.048;2024-03-08T11:33:13;15.13;;;10.47;;
6785;SDS011;3430;51.192;6.048;2024-03-08T11:35:41;14.37;;;10.37;;
6785;SDS011;3430;51.192;6.048;2024-03-08T11:38:07;14.57;;;10.90;;
6785;SDS011;3430;51.192;6.048;2024-03-08T11:40:33;15.73;;;11.53;;
6785;SDS011;3430;51.192;6.048;2024-03-08T11:42:59;15.23;;;11.50;;
6785;SDS011;3430;51.192;6.048;2024-03-08T11:45:28;16.23;;;10.90;;
6785;SDS011;3430;51.192;6.048;2024-03-08T11:47:56;14.93;;;10.73;;
6785;SDS011;3430;51.192;6.048;2024-03-08T11:50:21;14.50;;;10.63;;
6785;SDS011;3430;51.192;6.048;2024-03-08T11:52:49;18.00;;;10.93;;
6785;SDS011;3430;51.192;6.048;2024-03-08T11:55:15;15.27;;;9.73;;
6785;SDS011;3430;51.192;6.048;2024-03-08T11:57:40;14.63;;;9.83;;
6785;SDS011;3430;51.192;6.048;2024-03-08T12:00:14;14.20;;;10.40;;
6785;SDS011;3430;51.192;6.048;2024-03-08T12:02:46;12.87;;;9.53;;
6785;SDS011;3430;51.192;6.048;2024-03-08T12:05:15;11.50;;;9.10;;
6785;SDS011;3430;51.192;6.048;2024-03-08T12:07:41;11.77;;;9.70;;
6785;SDS011;3430;51.192;6.048;2024-03-08T12:13:00;18.00;;;9.80;;
6785;SDS011;3430;51.192;6.048;2024-03-08T12:15:25;13.70;;;9.77;;
6785;SDS011;3430;51.192;6.048;2024-03-08T12:17:52;14.07;;;9.63;;
6785;SDS011;3430;51.192;6.048;2024-03-08T12:20:23;14.27;;;10.07;;
6785;SDS011;3430;51.192;6.048;2024-03-08T12:22:50;13.50;;;9.90;;
6785;SDS011;3430;51.192;6.048;2024-03-08T12:25:22;15.13;;;10.30;;
6785;SDS011;3430;51.192;6.048;2024-03-08T12:27:47;13.67;;;9.93;;
6785;SDS011;3430;51.192;6.048;2024-03-08T12:35:14;13.93;;;9.70;;
6785;SDS011;3430;51.192;6.048;2024-03-08T12:37:41;13.70;;;8.80;;
6785;SDS011;3430;51.192;6.048;2024-03-08T12:40:07;13.03;;;9.57;;
6785;SDS011;3430;51.192;6.048;2024-03-08T12:42:33;12.63;;;9.60;;
6785;SDS011;3430;51.192;6.048;2024-03-08T12:44:59;13.43;;;9.13;;
6785;SDS011;3430;51.192;6.048;2024-03-08T12:47:25;14.00;;;9.83;;
6785;SDS011;3430;51.192;6.048;2024-03-08T12:49:54;15.27;;;10.60;;
6785;SDS011;3430;51.192;6.048;2024-03-08T12:52:20;12.50;;;9.43;;
6785;SDS011;3430;51.192;6.048;2024-03-08T12:54:46;12.60;;;9.13;;
6785;SDS011;3430;51.192;6.048;2024-03-08T12:57:12;14.17;;;9.77;;
6785;SDS011;3430;51.192;6.048;2024-03-08T12:59:38;11.53;;;8.83;;
6785;SDS011;3430;51.192;6.048;2024-03-08T13:02:03;15.17;;;9.53;;
6785;SDS011;3430;51.192;6.048;2024-03-08T13:04:30;14.97;;;10.53;;
6785;SDS011;3430;51.192;6.048;2024-03-08T13:06:56;12.27;;;9.07;;
6785;SDS011;3430;51.192;6.048;2024-03-08T13:09:22;14.53;;;9.80;;
6785;SDS011;3430;51.192;6.048;2024-03-08T13:11:47;12.87;;;9.00;;
6785;SDS011;3430;51.192;6.048;2024-03-08T13:14:12;14.07;;;9.40;;
6785;SDS011;3430;51.192;6.048;2024-03-08T13:16:38;12.60;;;9.50;;
6785;SDS011;3430;51.192;6.048;2024-03-08T13:19:03;14.50;;;9.33;;
6785;SDS011;3430;51.192;6.048;2024-03-08T13:21:29;13.73;;;10.43;;
6785;SDS011;3430;51.192;6.048;2024-03-08T13:23:58;13.60;;;9.23;;
6785;SDS011;3430;51.192;6.048;2024-03-08T13:26:26;14.90;;;9.70;;
6785;SDS011;3430;51.192;6.048;2024-03-08T13:28:57;12.47;;;9.43;;
6785;SDS011;3430;51.192;6.048;2024-03-08T13:31:23;13.13;;;9.73;;
6785;SDS011;3430;51.192;6.048;2024-03-08T13:33:49;10.27;;;8.13;;
6785;SDS011;3430;51.192;6.048;2024-03-08T13:36:16;18.13;;;9.80;;
6785;SDS011;3430;51.192;6.048;2024-03-08T13:38:42;14.43;;;9.50;;
6785;SDS011;3430;51.192;6.048;2024-03-08T13:41:09;15.17;;;9.30;;
6785;SDS011;3430;51.192;6.048;2024-03-08T13:43:34;11.17;;;9.17;;
6785;SDS011;3430;51.192;6.048;2024-03-08T13:46:01;13.47;;;9.20;;
6785;SDS011;3430;51.192;6.048;2024-03-08T13:48:27;14.77;;;9.63;;
6785;SDS011;3430;51.192;6.048;2024-03-08T13:50:55;11.40;;;8.77;;
6785;SDS011;3430;51.192;6.048;2024-03-08T13:53:22;10.77;;;9.00;;
6785;SDS011;3430;51.192;6.048;2024-03-08T13:55:48;13.73;;;8.40;;
6785;SDS011;3430;51.192;6.048;2024-03-08T13:58:14;11.07;;;8.70;;
6785;SDS011;3430;51.192;6.048;2024-03-08T14:00:42;14.07;;;8.77;;
6785;SDS011;3430;51.192;6.048;2024-03-08T14:03:11;14.43;;;9.63;;
6785;SDS011;3430;51.192;6.048;2024-03-08T14:05:40;13.33;;;9.30;;
6785;SDS011;3430;51.192;6.048;2024-03-08T14:08:08;12.33;;;9.17;;
6785;SDS011;3430;51.192;6.048;2024-03-08T14:10:33;13.00;;;9.03;;
6785;SDS011;3430;51.192;6.048;2024-03-08T14:12:59;11.80;;;8.90;;
6785;SDS011;3430;51.192;6.048;2024-03-08T14:15:25;14.50;;;9.27;;
6785;SDS011;3430;51.192;6.048;2024-03-08T14:17:56;15.43;;;9.50;;
6785;SDS011;3430;51.192;6.048;2024-03-08T14:20:22;12.00;;;8.87;;
6785;SDS011;3430;51.192;6.048;2024-03-08T14:22:52;12.67;;;8.70;;
6785;SDS011;3430;51.192;6.048;2024-03-08T14:25:21;11.93;;;9.10;;
6785;SDS011;3430;51.192;6.048;2024-03-08T14:27:49;12.83;;;8.67;;
6785;SDS011;3430;51.192;6.048;2024-03-08T14:30:15;12.17;;;9.23;;
6785;SDS011;3430;51.192;6.048;2024-03-08T14:33:08;11.70;;;8.53;;
6785;SDS011;3430;51.192;6.048;2024-03-08T14:35:34;10.60;;;8.37;;
6785;SDS011;3430;51.192;6.048;2024-03-08T14:38:00;11.80;;;8.30;;
6785;SDS011;3430;51.192;6.048;2024-03-08T14:40:25;11.17;;;8.97;;
6785;SDS011;3430;51.192;6.048;2024-03-08T14:42:51;15.13;;;9.00;;
6785;SDS011;3430;51.192;6.048;2024-03-08T14:45:21;10.50;;;8.37;;
6785;SDS011;3430;51.192;6.048;2024-03-08T14:47:48;12.63;;;7.83;;
6785;SDS011;3430;51.192;6.048;2024-03-08T14:50:17;15.47;;;8.83;;
6785;SDS011;3430;51.192;6.048;2024-03-08T14:52:51;13.43;;;8.80;;
6785;SDS011;3430;51.192;6.048;2024-03-08T14:55:17;13.73;;;9.13;;
6785;SDS011;3430;51.192;6.048;2024-03-08T14:57:45;13.00;;;8.83;;
6785;SDS011;3430;51.192;6.048;2024-03-08T15:00:10;18.07;;;8.73;;